Time;durP1;ratioP1;P1;durP2;ratioP2;P2;SDS_P1;SDS_P2;PMS_P1;PMS_P2;Temp;Humidity;BMP_temperature;BMP_pressure;BME280_temperature;BME280_humidity;BME280_pressure;Samples;Min_cycle;Max_cycle;Signal;HPM_P1;HPM_P2
2024/02/19 00:02:08;;;;;;;4.43;4.00;;;10.40;99.90;;;;;;5015261;28;20427;-69
2024/02/19 00:04:34;;;;;;;4.77;3.50;;;10.50;99.90;;;;;;5021137;28;20196;-69
2024/02/19 00:07:00;;;;;;;6.93;4.03;;;10.40;99.90;;;;;;5014871;28;20945;-68
2024/02/19 00:09:26;;;;;;;6.30;5.00;;;10.40;99.90;;;;;;5016058;28;20177;-69
2024/02/19 00:11:51;;;;;;;5.97;5.13;;;10.50;99.90;;;;;;5014784;28;20934;-69
2024/02/19 00:14:17;;;;;;;6.17;4.50;;;10.50;99.90;;;;;;5025012;28;20200;-69
2024/02/19 00:16:43;;;;;;;6.20;4.50;;;10.50;99.90;;;;;;5018065;28;20208;-70
2024/02/19 00:19:08;;;;;;;5.37;4.87;;;10.50;99.90;;;;;;5012260;28;20177;-69
2024/02/19 00:21:34;;;;;;;5.47;4.63;;;10.50;99.90;;;;;;5016299;28;20173;-69
2024/02/19 00:24:00;;;;;;;4.87;4.33;;;10.40;99.90;;;;;;5015657;28;20211;-69
2024/02/19 00:26:25;;;;;;;5.20;4.20;;;10.40;99.90;;;;;;5015775;28;20271;-69
2024/02/19 00:28:51;;;;;;;5.30;4.03;;;10.50;99.90;;;;;;5014278;28;20586;-70
2024/02/19 00:31:17;;;;;;;5.63;4.37;;;10.40;99.90;;;;;;5010728;28;20185;-68
2024/02/19 00:33:43;;;;;;;6.07;4.63;;;10.40;99.90;;;;;;5017237;28;20203;-69
2024/02/19 00:36:09;;;;;;;4.13;3.60;;;10.40;99.90;;;;;;5011994;28;20545;-68
2024/02/19 00:38:35;;;;;;;5.27;4.43;;;10.50;99.90;;;;;;5014206;28;20308;-69
2024/02/19 00:41:01;;;;;;;6.27;4.60;;;10.50;99.90;;;;;;5014167;28;21180;-69
2024/02/19 00:43:27;;;;;;;4.70;4.00;;;10.50;99.90;;;;;;5018668;28;20181;-68
2024/02/19 00:45:52;;;;;;;4.90;4.40;;;10.50;99.90;;;;;;5013279;28;20440;-69
2024/02/19 00:48:18;;;;;;;6.67;5.23;;;10.40;99.90;;;;;;5015572;28;20264;-69
2024/02/19 00:50:43;;;;;;;5.20;4.20;;;10.50;99.90;;;;;;5013991;28;20268;-69
2024/02/19 00:53:09;;;;;;;5.80;4.60;;;10.50;99.90;;;;;;5019528;28;20272;-68
2024/02/19 00:55:35;;;;;;;4.57;4.13;;;10.40;99.90;;;;;;5017494;28;20227;-68
2024/02/19 00:58:00;;;;;;;5.60;4.20;;;10.50;99.90;;;;;;5008630;28;20255;-68
2024/02/19 01:00:26;;;;;;;6.67;5.00;;;10.60;99.90;;;;;;5017105;28;20256;-69
2024/02/19 01:02:52;;;;;;;8.73;4.63;;;10.70;99.90;;;;;;5012597;28;20255;-68
2024/02/19 01:05:19;;;;;;;5.47;4.87;;;10.60;99.90;;;;;;5013528;28;20215;-69
2024/02/19 01:07:45;;;;;;;5.80;4.23;;;10.60;99.90;;;;;;5016015;28;20427;-68
2024/02/19 01:10:10;;;;;;;8.13;4.67;;;10.50;99.90;;;;;;5006995;28;20419;-69
2024/02/19 01:12:37;;;;;;;5.27;4.50;;;10.50;99.90;;;;;;5010999;28;20199;-68
2024/02/19 01:15:03;;;;;;;5.03;4.53;;;10.60;99.90;;;;;;5013102;28;20753;-68
2024/02/19 01:17:29;;;;;;;5.73;4.90;;;10.50;99.90;;;;;;5017644;28;20535;-68
2024/02/19 01:19:56;;;;;;;6.20;4.57;;;10.60;99.90;;;;;;5012646;28;20674;-68
2024/02/19 01:22:21;;;;;;;6.20;4.80;;;10.60;99.90;;;;;;5013835;28;20660;-69
2024/02/19 01:24:48;;;;;;;8.80;4.87;;;10.70;99.90;;;;;;5013708;28;20476;-71
2024/02/19 01:27:14;;;;;;;7.00;4.50;;;10.70;99.90;;;;;;5016467;28;20241;-70
2024/02/19 01:29:39;;;;;;;6.07;4.87;;;10.70;99.90;;;;;;5013138;28;20529;-69
2024/02/19 01:32:05;;;;;;;5.60;4.97;;;10.70;99.90;;;;;;5011691;28;20220;-69
2024/02/19 01:34:31;;;;;;;7.00;6.00;;;10.70;99.90;;;;;;5013173;28;20209;-69
2024/02/19 01:37:00;;;;;;;6.63;4.73;;;10.70;99.90;;;;;;5016553;28;20184;-69
2024/02/19 01:39:26;;;;;;;6.63;5.10;;;10.80;99.90;;;;;;5010933;28;21289;-70
2024/02/19 01:41:51;;;;;;;5.30;4.53;;;10.80;99.90;;;;;;5014519;28;20427;-70
2024/02/19 01:44:17;;;;;;;6.57;5.10;;;10.80;99.90;;;;;;5018105;28;20242;-69
2024/02/19 01:46:45;;;;;;;5.27;4.77;;;10.80;99.90;;;;;;5012686;28;20204;-69
2024/02/19 01:49:12;;;;;;;5.70;4.60;;;10.80;99.90;;;;;;5016214;28;20449;-69
2024/02/19 01:51:39;;;;;;;5.70;4.90;;;10.80;99.90;;;;;;5008932;28;20416;-69
2024/02/19 01:54:05;;;;;;;6.30;5.40;;;10.80;99.90;;;;;;5013814;28;20467;-70
2024/02/19 01:56:31;;;;;;;9.63;5.13;;;10.80;99.90;;;;;;5018627;28;20486;-70
2024/02/19 01:58:59;;;;;;;5.10;4.60;;;10.80;99.90;;;;;;5012516;28;20922;-69
2024/02/19 02:01:26;;;;;;;6.10;5.03;;;10.80;99.90;;;;;;5013316;28;20496;-69
2024/02/19 02:03:52;;;;;;;5.90;4.50;;;10.80;99.90;;;;;;5013554;28;20532;-69
2024/02/19 02:06:17;;;;;;;7.87;5.50;;;10.80;99.90;;;;;;5007332;28;20412;-69
2024/02/19 02:08:45;;;;;;;7.27;5.10;;;10.90;99.90;;;;;;5014531;28;20185;-69
2024/02/19 02:11:10;;;;;;;8.70;5.20;;;10.90;99.90;;;;;;5016365;28;20207;-69
2024/02/19 02:13:36;;;;;;;6.20;4.57;;;10.80;99.90;;;;;;5013521;28;20479;-69
2024/02/19 02:16:02;;;;;;;6.23;5.10;;;10.80;99.90;;;;;;5013091;28;20224;-70
2024/02/19 02:18:31;;;;;;;4.67;4.10;;;10.80;99.90;;;;;;5016171;28;20192;-70
2024/02/19 02:20:58;;;;;;;7.10;4.60;;;10.90;99.90;;;;;;5015082;28;21019;-70
2024/02/19 02:23:24;;;;;;;5.07;4.53;;;10.90;99.90;;;;;;5015937;28;20431;-70
2024/02/19 02:25:50;;;;;;;5.67;4.70;;;10.90;99.90;;;;;;5012488;28;20435;-70
2024/02/19 02:28:16;;;;;;;5.80;4.73;;;11.00;99.90;;;;;;5012767;28;20424;-70
2024/02/19 02:30:41;;;;;;;5.03;4.53;;;10.90;99.90;;;;;;5011687;28;20427;-67
2024/02/19 02:33:07;;;;;;;5.43;4.93;;;10.90;99.90;;;;;;5008744;28;20193;-69
2024/02/19 02:35:33;;;;;;;5.83;4.43;;;10.90;99.90;;;;;;5013961;28;20278;-70
2024/02/19 02:37:59;;;;;;;5.07;4.30;;;10.90;99.90;;;;;;5016224;28;20179;-68
2024/02/19 02:40:26;;;;;;;6.00;5.07;;;10.90;99.90;;;;;;5008660;28;20420;-69
2024/02/19 02:42:52;;;;;;;5.70;4.90;;;10.90;99.90;;;;;;5017233;28;20447;-69
2024/02/19 02:45:17;;;;;;;6.13;4.80;;;11.00;99.90;;;;;;5014717;28;20558;-69
2024/02/19 02:47:43;;;;;;;4.40;3.93;;;11.00;99.90;;;;;;5016759;28;20518;-69
2024/02/19 02:50:09;;;;;;;8.37;5.03;;;11.00;99.90;;;;;;5016992;28;20196;-69
2024/02/19 02:52:35;;;;;;;5.60;4.87;;;11.00;99.90;;;;;;5013809;28;20196;-70
2024/02/19 02:55:00;;;;;;;5.67;4.70;;;11.10;99.90;;;;;;5010548;28;20219;-69
2024/02/19 02:57:26;;;;;;;6.40;5.00;;;11.10;99.90;;;;;;5014877;28;20185;-69
2024/02/19 02:59:52;;;;;;;7.13;4.40;;;11.20;99.90;;;;;;5015647;28;20541;-68
2024/02/19 03:02:18;;;;;;;5.87;4.93;;;11.00;99.90;;;;;;5013549;28;20227;-68
2024/02/19 03:04:43;;;;;;;6.67;4.60;;;11.00;99.90;;;;;;5013666;28;20204;-69
2024/02/19 03:07:09;;;;;;;6.90;4.57;;;11.00;99.90;;;;;;5010099;28;20631;-68
2024/02/19 03:09:34;;;;;;;5.90;4.90;;;11.10;99.90;;;;;;5009674;28;20573;-69
2024/02/19 03:12:00;;;;;;;6.37;5.67;;;11.10;99.90;;;;;;5012784;28;20185;-69
2024/02/19 03:14:25;;;;;;;5.70;5.03;;;11.10;99.90;;;;;;5010867;28;20208;-69
2024/02/19 03:16:51;;;;;;;4.83;4.23;;;11.00;99.90;;;;;;5011456;28;20594;-69
2024/02/19 03:19:17;;;;;;;5.47;4.53;;;11.00;99.90;;;;;;5013148;28;20251;-69
2024/02/19 03:21:42;;;;;;;5.77;4.60;;;11.00;99.90;;;;;;5017005;28;20808;-69
2024/02/19 03:24:08;;;;;;;5.67;4.97;;;11.00;99.90;;;;;;5011018;28;20225;-69
2024/02/19 03:26:34;;;;;;;5.20;4.60;;;11.00;99.90;;;;;;5016453;28;20184;-69
2024/02/19 03:29:01;;;;;;;6.03;5.17;;;11.10;99.90;;;;;;5017798;28;20550;-69
2024/02/19 03:31:26;;;;;;;6.30;5.67;;;11.00;99.90;;;;;;5016306;28;20532;-69
2024/02/19 03:33:52;;;;;;;7.87;6.40;;;11.00;99.90;;;;;;5013990;28;20379;-69
2024/02/19 03:36:18;;;;;;;5.33;4.83;;;11.00;99.90;;;;;;5019646;28;20470;-69
2024/02/19 03:38:44;;;;;;;5.67;4.83;;;11.00;99.90;;;;;;5018328;28;20268;-69
2024/02/19 03:41:12;;;;;;;8.50;5.47;;;11.00;99.90;;;;;;5012080;28;20511;-69
2024/02/19 03:43:37;;;;;;;7.17;4.93;;;11.00;99.90;;;;;;5022316;28;20208;-68
2024/02/19 03:46:05;;;;;;;8.07;5.63;;;11.00;99.90;;;;;;5017460;28;20427;-68
2024/02/19 03:48:31;;;;;;;7.33;5.73;;;11.00;99.90;;;;;;5015797;28;20950;-68
2024/02/19 03:50:57;;;;;;;5.90;5.30;;;10.90;99.90;;;;;;5019728;28;20419;-69
2024/02/19 03:53:23;;;;;;;6.03;5.00;;;10.80;99.90;;;;;;5012541;28;20929;-69
2024/02/19 03:55:48;;;;;;;8.87;5.80;;;10.90;99.90;;;;;;5016424;28;20315;-69
2024/02/19 03:58:14;;;;;;;5.90;4.50;;;10.90;99.90;;;;;;5018364;28;20694;-69
2024/02/19 04:00:39;;;;;;;5.80;5.20;;;10.90;99.90;;;;;;5018991;28;20189;-69
2024/02/19 04:03:05;;;;;;;7.53;5.23;;;10.90;99.90;;;;;;5016062;28;20185;-68
2024/02/19 04:05:31;;;;;;;9.03;5.93;;;10.90;99.90;;;;;;5018252;28;20609;-69
2024/02/19 04:07:57;;;;;;;6.70;5.73;;;10.90;99.90;;;;;;5015717;28;20427;-69
2024/02/19 04:10:23;;;;;;;7.27;5.57;;;10.90;99.90;;;;;;5014405;28;20591;-69
2024/02/19 04:12:48;;;;;;;6.90;5.17;;;10.90;99.90;;;;;;5014890;28;20482;-69
2024/02/19 04:15:14;;;;;;;8.90;6.57;;;10.90;99.90;;;;;;5014396;28;20219;-69
2024/02/19 04:17:40;;;;;;;6.97;5.37;;;10.80;99.90;;;;;;5015923;28;20208;-69
2024/02/19 04:20:06;;;;;;;7.80;5.70;;;10.90;99.90;;;;;;5021274;28;20437;-69
2024/02/19 04:22:32;;;;;;;6.17;5.57;;;10.90;99.90;;;;;;5013692;28;20185;-69
2024/02/19 04:24:57;;;;;;;8.90;6.77;;;10.80;99.90;;;;;;5020554;28;20451;-69
2024/02/19 04:27:23;;;;;;;6.23;5.10;;;10.90;99.90;;;;;;5011728;28;20576;-69
2024/02/19 04:29:48;;;;;;;6.93;5.90;;;11.00;99.90;;;;;;5011982;28;20193;-69
2024/02/19 04:32:14;;;;;;;8.23;5.90;;;11.00;99.90;;;;;;5019388;28;20188;-69
2024/02/19 04:34:40;;;;;;;7.30;6.10;;;11.00;99.90;;;;;;5022532;28;20227;-69
2024/02/19 04:37:08;;;;;;;8.93;5.80;;;11.00;99.90;;;;;;5014626;28;20550;-69
2024/02/19 04:39:34;;;;;;;7.10;6.00;;;11.00;99.90;;;;;;5014987;28;20652;-70
2024/02/19 04:42:01;;;;;;;9.40;5.90;;;11.10;99.90;;;;;;5017198;28;20431;-69
2024/02/19 04:44:27;;;;;;;7.37;6.33;;;11.10;99.90;;;;;;5017996;28;21056;-69
2024/02/19 04:46:53;;;;;;;8.00;5.90;;;11.10;99.90;;;;;;5019051;28;20435;-69
2024/02/19 04:49:18;;;;;;;6.30;5.70;;;11.10;99.90;;;;;;5028108;28;20192;-69
2024/02/19 04:51:44;;;;;;;8.00;6.57;;;11.10;99.90;;;;;;5028239;28;20196;-70
2024/02/19 04:54:12;;;;;;;7.83;5.80;;;11.10;99.90;;;;;;5017561;28;20223;-69
2024/02/19 04:56:37;;;;;;;6.10;5.30;;;11.10;99.90;;;;;;5012587;28;20201;-69
2024/02/19 04:59:03;;;;;;;7.63;5.90;;;11.10;99.90;;;;;;5015730;28;20424;-69
2024/02/19 05:01:31;;;;;;;7.93;6.03;;;11.00;99.90;;;;;;5015547;28;20188;-70
2024/02/19 05:04:00;;;;;;;7.00;5.97;;;10.90;99.90;;;;;;5015620;28;20687;-69
2024/02/19 05:06:27;;;;;;;7.73;6.03;;;11.00;99.90;;;;;;5018511;28;20471;-71
2024/02/19 05:08:53;;;;;;;8.80;6.83;;;11.00;99.90;;;;;;5012376;28;20423;-69
2024/02/19 05:11:19;;;;;;;7.60;6.00;;;11.00;99.90;;;;;;5014335;28;20429;-69
2024/02/19 05:13:44;;;;;;;7.97;5.90;;;11.00;99.90;;;;;;5018900;28;20232;-70
2024/02/19 05:16:10;;;;;;;10.80;6.33;;;11.10;99.90;;;;;;5015140;28;20591;-69
2024/02/19 05:18:35;;;;;;;8.93;6.27;;;11.20;99.90;;;;;;5016457;28;20208;-70
2024/02/19 05:21:03;;;;;;;7.57;6.50;;;11.10;99.90;;;;;;5015948;28;20268;-70
2024/02/19 05:23:31;;;;;;;8.37;6.20;;;11.10;99.90;;;;;;5014746;28;20187;-69
2024/02/19 05:25:57;;;;;;;9.70;5.80;;;11.10;99.90;;;;;;5015117;28;20431;-69
2024/02/19 05:28:23;;;;;;;7.73;5.40;;;11.10;99.90;;;;;;5014127;28;20438;-69
2024/02/19 05:30:48;;;;;;;9.33;6.43;;;11.20;99.90;;;;;;5016894;28;20471;-70
2024/02/19 05:33:18;;;;;;;7.43;6.10;;;11.20;99.90;;;;;;5018685;28;20188;-69
2024/02/19 05:35:46;;;;;;;10.40;5.70;;;11.10;99.90;;;;;;5017555;28;20205;-69
2024/02/19 05:38:12;;;;;;;9.70;5.57;;;11.20;99.90;;;;;;5014387;28;20424;-70
2024/02/19 05:40:38;;;;;;;7.07;5.10;;;11.30;99.90;;;;;;5019000;28;20419;-69
2024/02/19 05:43:05;;;;;;;6.17;4.83;;;11.20;99.90;;;;;;5017304;28;20483;-68
2024/02/19 05:45:30;;;;;;;8.17;5.23;;;11.20;99.90;;;;;;5015264;28;20720;-68
2024/02/19 05:47:56;;;;;;;7.97;5.07;;;11.10;99.90;;;;;;5015848;28;20977;-68
2024/02/19 05:50:22;;;;;;;6.93;5.13;;;11.20;99.90;;;;;;5010540;28;20212;-68
2024/02/19 05:52:47;;;;;;;10.70;5.47;;;11.20;99.90;;;;;;5017078;28;20212;-69
2024/02/19 05:55:13;;;;;;;7.20;3.93;;;11.30;99.90;;;;;;5011822;28;20219;-68
2024/02/19 05:57:38;;;;;;;6.30;4.87;;;11.40;99.90;;;;;;5011462;28;20287;-68
2024/02/19 06:00:05;;;;;;;7.03;5.00;;;11.30;99.90;;;;;;5010689;28;20264;-69
2024/02/19 06:02:31;;;;;;;10.67;4.80;;;11.30;99.90;;;;;;5008961;28;20837;-68
2024/02/19 06:04:57;;;;;;;8.20;4.47;;;11.20;99.90;;;;;;5012649;28;20436;-69
2024/02/19 06:07:22;;;;;;;6.30;3.40;;;11.20;99.90;;;;;;5015582;28;21015;-70
2024/02/19 06:10:33;;;;;;;6.40;3.03;;;11.30;99.90;;;;;;5012800;28;20243;-71
2024/02/19 06:12:40;;;;;;;6.00;3.33;;;11.30;99.90;;;;;;5019118;28;20197;-68
2024/02/19 06:15:06;;;;;;;4.10;2.77;;;11.30;99.90;;;;;;5011527;28;20537;-69
2024/02/19 06:17:31;;;;;;;6.37;2.90;;;11.40;99.90;;;;;;5015245;28;20192;-68
2024/02/19 06:19:57;;;;;;;3.80;2.87;;;11.30;99.90;;;;;;5012374;28;20564;-68
2024/02/19 06:22:22;;;;;;;4.87;3.10;;;11.30;99.90;;;;;;5009745;28;20187;-69
2024/02/19 06:24:48;;;;;;;6.73;3.50;;;11.30;99.90;;;;;;5010994;28;20569;-69
2024/02/19 06:27:13;;;;;;;5.23;3.23;;;11.30;99.90;;;;;;5012912;28;20256;-69
2024/02/19 06:29:39;;;;;;;6.03;3.10;;;11.20;99.90;;;;;;5015901;28;20215;-69
2024/02/19 06:32:06;;;;;;;7.20;3.73;;;11.20;99.90;;;;;;5013318;28;20554;-69
2024/02/19 06:34:34;;;;;;;6.27;3.00;;;11.10;99.90;;;;;;5011430;28;20196;-69
2024/02/19 06:36:59;;;;;;;3.47;2.77;;;11.10;99.90;;;;;;5012261;28;20464;-69
2024/02/19 06:39:25;;;;;;;5.90;2.43;;;11.10;99.90;;;;;;5016310;28;20478;-69
2024/02/19 06:41:50;;;;;;;5.20;2.70;;;11.10;99.90;;;;;;5014187;28;20259;-69
2024/02/19 06:44:16;;;;;;;6.80;2.70;;;11.10;99.90;;;;;;5018609;28;20291;-69
2024/02/19 06:46:42;;;;;;;4.33;2.60;;;11.00;99.90;;;;;;5011631;28;20193;-68
2024/02/19 06:49:07;;;;;;;4.07;2.17;;;10.90;99.90;;;;;;5011349;28;20181;-68
2024/02/19 06:51:33;;;;;;;7.20;2.87;;;10.90;99.90;;;;;;5008856;28;20569;-68
2024/02/19 06:53:59;;;;;;;5.07;3.30;;;10.90;99.90;;;;;;5008940;28;20210;-69
2024/02/19 06:56:24;;;;;;;5.20;2.70;;;10.90;99.90;;;;;;5013359;28;20558;-69
2024/02/19 06:58:50;;;;;;;8.97;2.90;;;10.80;99.90;;;;;;5014279;28;20203;-69
2024/02/19 07:01:15;;;;;;;4.63;2.40;;;10.80;99.90;;;;;;5010001;28;20264;-69
2024/02/19 07:03:42;;;;;;;4.13;2.87;;;10.80;99.90;;;;;;5016184;28;20204;-69
2024/02/19 07:06:08;;;;;;;3.53;2.60;;;10.80;99.90;;;;;;5012395;28;20211;-69
2024/02/19 07:08:33;;;;;;;5.97;2.30;;;10.80;99.90;;;;;;5015969;28;20426;-69
2024/02/19 07:10:59;;;;;;;4.20;2.90;;;10.90;99.90;;;;;;5016872;28;20249;-69
2024/02/19 07:13:24;;;;;;;6.60;3.03;;;11.00;99.90;;;;;;5019655;28;20254;-69
2024/02/19 07:15:50;;;;;;;3.57;2.53;;;11.00;99.90;;;;;;5017621;28;20219;-69
2024/02/19 07:18:15;;;;;;;5.20;3.20;;;11.10;99.90;;;;;;5014912;28;20181;-69
2024/02/19 07:20:41;;;;;;;7.93;2.30;;;10.90;99.90;;;;;;5016021;28;20243;-69
2024/02/19 07:23:07;;;;;;;5.27;2.43;;;10.90;99.90;;;;;;5016825;28;20184;-69
2024/02/19 07:25:32;;;;;;;11.90;3.07;;;11.10;99.90;;;;;;5014116;28;20358;-69
2024/02/19 07:27:58;;;;;;;4.63;2.57;;;11.00;99.90;;;;;;5018425;28;20192;-69
2024/02/19 07:30:23;;;;;;;4.60;2.40;;;11.00;99.90;;;;;;5014324;28;20180;-68
2024/02/19 07:32:49;;;;;;;4.87;2.83;;;11.10;99.90;;;;;;5009866;28;20185;-68
2024/02/19 07:35:15;;;;;;;7.60;3.07;;;11.00;99.90;;;;;;5019426;28;20648;-69
2024/02/19 07:37:41;;;;;;;4.87;2.73;;;11.00;99.90;;;;;;5015342;28;20681;-69
2024/02/19 07:40:07;;;;;;;6.17;2.77;;;11.00;99.90;;;;;;5018554;28;20172;-69
2024/02/19 07:42:32;;;;;;;5.27;2.97;;;11.10;99.90;;;;;;5016487;28;20430;-69
2024/02/19 07:44:58;;;;;;;4.10;3.13;;;11.10;99.90;;;;;;5019473;28;20440;-69
2024/02/19 07:47:23;;;;;;;4.23;2.60;;;11.10;99.90;;;;;;5024948;28;20840;-68
2024/02/19 07:49:49;;;;;;;4.00;2.70;;;11.10;99.90;;;;;;5011016;28;20263;-68
2024/02/19 07:52:15;;;;;;;5.87;3.00;;;11.10;99.90;;;;;;5014066;28;20174;-67
2024/02/19 07:54:40;;;;;;;6.33;2.60;;;11.10;99.90;;;;;;5017383;28;20288;-68
2024/02/19 07:57:07;;;;;;;6.30;3.10;;;11.10;99.90;;;;;;5014995;28;20216;-68
2024/02/19 07:59:32;;;;;;;5.07;2.60;;;11.20;99.90;;;;;;5018589;28;20628;-68
2024/02/19 08:01:59;;;;;;;8.70;2.60;;;11.30;99.90;;;;;;5016830;28;20498;-68
2024/02/19 08:04:27;;;;;;;5.83;2.70;;;11.30;99.90;;;;;;5019820;28;20203;-69
2024/02/19 08:06:53;;;;;;;6.93;2.53;;;11.20;99.90;;;;;;5018143;28;20435;-68
2024/02/19 08:09:19;;;;;;;4.53;2.80;;;11.20;99.90;;;;;;5021032;28;20532;-68
2024/02/19 08:11:44;;;;;;;7.20;2.90;;;11.30;99.90;;;;;;5017213;28;20434;-70
2024/02/19 08:14:10;;;;;;;3.80;3.10;;;11.30;99.90;;;;;;5019564;28;20246;-68
2024/02/19 08:16:36;;;;;;;8.00;5.13;;;11.30;99.90;;;;;;5016641;28;20212;-68
2024/02/19 08:19:01;;;;;;;5.90;3.20;;;11.20;99.90;;;;;;5017507;28;20184;-68
2024/02/19 08:21:27;;;;;;;8.50;3.47;;;11.30;99.90;;;;;;5013855;28;20189;-70
2024/02/19 08:23:53;;;;;;;6.90;4.23;;;11.30;99.90;;;;;;5014117;28;20535;-68
2024/02/19 08:26:20;;;;;;;6.53;3.20;;;11.20;99.90;;;;;;5017890;28;20184;-69
2024/02/19 08:28:47;;;;;;;7.87;3.70;;;11.30;99.90;;;;;;5018684;28;20189;-69
2024/02/19 08:31:12;;;;;;;7.90;2.80;;;11.40;99.90;;;;;;5019471;28;20435;-70
2024/02/19 08:33:38;;;;;;;5.70;2.53;;;11.30;99.90;;;;;;5019684;28;20446;-69
2024/02/19 08:36:04;;;;;;;9.07;2.93;;;11.40;99.90;;;;;;5016646;28;20261;-69
2024/02/19 08:38:30;;;;;;;5.87;3.20;;;11.40;99.90;;;;;;5021490;28;20185;-71
2024/02/19 08:40:56;;;;;;;7.47;3.40;;;11.50;99.90;;;;;;5019582;28;20787;-68
2024/02/19 08:43:21;;;;;;;6.47;3.03;;;11.50;99.90;;;;;;5022601;28;20410;-68
2024/02/19 08:45:47;;;;;;;6.37;2.53;;;11.60;99.90;;;;;;5019129;28;20187;-69
2024/02/19 08:48:13;;;;;;;6.87;3.40;;;11.70;99.90;;;;;;5014856;28;20315;-68
2024/02/19 08:50:39;;;;;;;8.00;3.07;;;11.70;99.90;;;;;;5011467;28;20187;-69
2024/02/19 08:53:04;;;;;;;7.77;4.10;;;11.70;99.90;;;;;;5019753;28;20188;-69
2024/02/19 08:55:31;;;;;;;10.03;5.10;;;11.60;99.90;;;;;;5015941;28;20466;-69
2024/02/19 08:57:56;;;;;;;4.63;2.97;;;11.70;99.90;;;;;;5015517;28;20189;-69
2024/02/19 09:00:23;;;;;;;4.93;2.30;;;11.70;99.90;;;;;;5012409;28;20481;-68
2024/02/19 09:02:49;;;;;;;5.50;2.60;;;11.80;99.90;;;;;;5012498;28;20612;-69
2024/02/19 09:05:14;;;;;;;6.53;3.10;;;11.80;99.90;;;;;;5016685;28;20485;-69
2024/02/19 09:07:40;;;;;;;9.00;2.90;;;11.70;99.90;;;;;;5011651;28;20276;-69
2024/02/19 09:10:06;;;;;;;7.60;3.10;;;11.70;99.90;;;;;;5010727;28;20196;-69
2024/02/19 09:12:32;;;;;;;5.37;3.33;;;11.80;99.90;;;;;;5010955;28;20667;-69
2024/02/19 09:14:58;;;;;;;8.57;2.97;;;11.90;99.90;;;;;;5015218;28;20471;-69
2024/02/19 09:17:24;;;;;;;6.63;2.80;;;11.90;99.90;;;;;;5015008;28;20648;-69
2024/02/19 09:19:50;;;;;;;4.00;2.63;;;11.80;99.90;;;;;;5012778;28;20417;-68
2024/02/19 09:22:16;;;;;;;7.90;2.70;;;11.90;99.90;;;;;;5017529;28;20432;-67
2024/02/19 09:24:46;;;;;;;6.17;3.03;;;12.00;99.90;;;;;;5012849;28;20567;-68
2024/02/19 09:27:12;;;;;;;9.03;2.90;;;12.00;99.90;;;;;;5017524;28;20811;-68
2024/02/19 09:29:37;;;;;;;6.90;2.60;;;12.10;99.90;;;;;;5014726;28;20413;-68
2024/02/19 09:32:03;;;;;;;8.10;2.93;;;12.10;99.90;;;;;;5015768;28;20185;-68
2024/02/19 09:34:29;;;;;;;6.03;2.67;;;12.10;99.90;;;;;;5016941;28;20205;-69
2024/02/19 09:36:54;;;;;;;8.63;3.00;;;12.10;99.90;;;;;;5016069;28;21286;-69
2024/02/19 09:39:20;;;;;;;8.13;2.80;;;12.00;99.90;;;;;;5014230;28;20191;-70
2024/02/19 09:41:47;;;;;;;11.60;2.80;;;11.90;99.90;;;;;;5012859;28;20708;-71
2024/02/19 09:44:13;;;;;;;4.73;2.57;;;11.90;99.90;;;;;;5012488;28;20197;-68
2024/02/19 09:46:40;;;;;;;9.43;3.03;;;11.80;99.90;;;;;;5015352;28;20792;-68
2024/02/19 09:49:09;;;;;;;3.90;2.70;;;11.70;99.90;;;;;;5017602;28;20460;-68
2024/02/19 09:51:39;;;;;;;6.30;2.20;;;11.70;99.90;;;;;;5013552;28;20526;-68
2024/02/19 09:54:05;;;;;;;4.93;2.77;;;11.70;99.90;;;;;;5020512;28;20439;-68
2024/02/19 09:56:34;;;;;;;5.03;2.70;;;11.80;99.90;;;;;;5010238;28;20462;-68
2024/02/19 09:58:59;;;;;;;3.93;2.27;;;11.80;99.90;;;;;;5011813;28;20639;-68
2024/02/19 10:01:25;;;;;;;7.23;2.40;;;11.80;99.90;;;;;;5012287;28;20428;-70
2024/02/19 10:03:51;;;;;;;6.70;2.30;;;11.80;99.90;;;;;;5014162;28;20203;-69
2024/02/19 10:06:17;;;;;;;6.13;3.63;;;11.80;99.90;;;;;;5012339;28;20181;-70
2024/02/19 10:08:43;;;;;;;8.07;3.30;;;11.80;99.90;;;;;;5016430;28;20427;-69
2024/02/19 10:11:10;;;;;;;3.60;2.73;;;11.90;99.90;;;;;;5014597;28;20188;-69
2024/02/19 10:13:41;;;;;;;4.00;2.40;;;12.00;99.90;;;;;;5016874;28;20200;-69
2024/02/19 10:16:11;;;;;;;4.10;2.33;;;12.00;99.90;;;;;;5014162;28;20471;-69
2024/02/19 10:18:37;;;;;;;6.13;2.57;;;12.00;99.90;;;;;;5012102;28;20527;-70
2024/02/19 10:21:03;;;;;;;9.43;2.60;;;11.90;99.90;;;;;;5013070;28;20791;-69
2024/02/19 10:23:29;;;;;;;7.50;2.20;;;11.90;99.90;;;;;;5009589;28;20428;-69
2024/02/19 10:25:55;;;;;;;9.90;2.73;;;11.80;99.90;;;;;;5020570;28;20414;-68
2024/02/19 10:28:22;;;;;;;6.90;3.00;;;11.80;99.90;;;;;;5016219;28;20660;-69
2024/02/19 10:30:48;;;;;;;7.30;2.90;;;11.90;99.90;;;;;;5013261;28;20420;-69
2024/02/19 10:33:14;;;;;;;7.27;2.20;;;12.00;99.90;;;;;;5014677;28;20960;-69
2024/02/19 10:35:41;;;;;;;4.50;2.40;;;12.20;99.90;;;;;;5011419;28;20463;-70
2024/02/19 10:38:08;;;;;;;5.30;2.67;;;12.30;99.90;;;;;;5008531;28;20848;-69
2024/02/19 10:40:33;;;;;;;7.07;2.60;;;12.50;99.90;;;;;;5012481;28;20439;-69
2024/02/19 10:43:00;;;;;;;8.03;2.80;;;12.50;99.90;;;;;;5008597;28;20419;-68
2024/02/19 10:45:26;;;;;;;4.67;2.90;;;12.50;99.90;;;;;;5016094;28;20228;-69
2024/02/19 10:47:55;;;;;;;6.73;2.77;;;12.50;99.90;;;;;;5013887;28;20413;-69
2024/02/19 10:50:22;;;;;;;5.27;2.53;;;12.50;99.90;;;;;;5015372;28;20430;-68
2024/02/19 10:52:48;;;;;;;8.00;2.97;;;12.60;99.90;;;;;;5007513;28;20541;-69
2024/02/19 10:55:15;;;;;;;4.43;2.87;;;12.50;99.90;;;;;;5011050;28;20464;-69
2024/02/19 10:57:58;;;;;;;10.47;2.90;;;12.60;99.90;;;;;;5010343;28;20836;-68
2024/02/19 11:00:26;;;;;;;5.30;3.23;;;12.70;99.90;;;;;;5017037;28;20818;-68
2024/02/19 11:03:04;;;;;;;7.43;3.10;;;12.80;99.90;;;;;;5011814;28;21000;-68
2024/02/19 11:05:34;;;;;;;6.83;3.17;;;12.80;99.90;;;;;;5014379;28;20442;-68
2024/02/19 11:08:04;;;;;;;8.77;3.13;;;12.80;99.90;;;;;;5013237;28;21240;-67
2024/02/19 11:10:40;;;;;;;15.40;3.87;;;12.80;99.90;;;;;;5011760;28;20519;-68
2024/02/19 11:13:11;;;;;;;9.97;3.43;;;12.80;99.90;;;;;;5007759;28;20427;-68
2024/02/19 11:15:41;;;;;;;8.07;3.13;;;12.90;99.90;;;;;;5010830;28;20497;-68
2024/02/19 11:18:17;;;;;;;13.27;3.63;;;12.90;99.90;;;;;;4997950;28;20420;-67
2024/02/19 11:20:44;;;;;;;8.10;4.80;;;13.00;99.90;;;;;;5008399;28;20527;-68
2024/02/19 11:23:11;;;;;;;14.10;3.70;;;13.00;99.90;;;;;;5011695;28;20424;-68
2024/02/19 11:25:37;;;;;;;7.77;3.17;;;12.90;99.90;;;;;;5014313;28;20439;-69
2024/02/19 11:28:04;;;;;;;9.83;3.57;;;13.00;99.90;;;;;;5012865;28;20531;-69
2024/02/19 11:30:31;;;;;;;6.23;3.07;;;13.00;99.90;;;;;;5014011;28;20424;-69
2024/02/19 11:33:04;;;;;;;7.10;2.90;;;13.00;99.90;;;;;;5008975;28;20842;-68
2024/02/19 11:35:30;;;;;;;6.50;3.17;;;13.10;99.90;;;;;;5010306;28;20470;-68
2024/02/19 11:37:56;;;;;;;4.90;2.70;;;13.20;99.90;;;;;;5008473;28;20424;-67
2024/02/19 11:40:31;;;;;;;6.73;2.80;;;13.10;99.90;;;;;;5010203;28;20216;-68
2024/02/19 11:43:00;;;;;;;5.40;3.10;;;13.20;99.90;;;;;;5008827;28;20173;-70
2024/02/19 11:45:31;;;;;;;7.23;2.97;;;13.20;99.90;;;;;;5011132;28;20469;-68
2024/02/19 11:47:57;;;;;;;6.13;2.90;;;13.30;99.90;;;;;;5012374;28;20432;-68
2024/02/19 11:50:30;;;;;;;7.67;3.67;;;13.50;99.90;;;;;;5016112;28;20526;-68
2024/02/19 11:52:58;;;;;;;6.40;3.20;;;13.40;99.90;;;;;;5009045;28;20427;-68
2024/02/19 11:55:24;;;;;;;8.50;4.17;;;13.50;99.90;;;;;;5013255;28;20910;-67
2024/02/19 11:57:51;;;;;;;6.40;3.20;;;13.50;99.90;;;;;;5018963;28;20418;-68
2024/02/19 12:00:17;;;;;;;7.27;3.70;;;13.60;99.90;;;;;;5014203;28;20494;-68
2024/02/19 12:02:48;;;;;;;7.77;3.13;;;13.50;99.90;;;;;;5023095;28;20444;-68
2024/02/19 12:05:16;;;;;;;8.07;3.67;;;13.50;99.90;;;;;;5018522;28;20482;-68
2024/02/19 12:07:42;;;;;;;4.07;2.70;;;13.40;99.90;;;;;;5014500;28;20419;-68
2024/02/19 12:10:09;;;;;;;6.83;2.73;;;13.30;99.90;;;;;;5016734;28;20819;-67
2024/02/19 12:12:37;;;;;;;8.27;3.23;;;13.20;99.90;;;;;;5016872;28;20457;-67
2024/02/19 12:15:15;;;;;;;8.50;5.30;;;13.20;99.90;;;;;;5016146;28;20495;-68
2024/02/19 12:17:42;;;;;;;10.07;3.80;;;13.20;99.90;;;;;;5016505;28;20458;-68
2024/02/19 12:20:11;;;;;;;5.13;3.53;;;13.20;99.90;;;;;;5016192;28;20544;-68
2024/02/19 12:22:38;;;;;;;9.30;3.00;;;13.40;99.90;;;;;;5020169;28;20422;-68
2024/02/19 12:25:05;;;;;;;10.70;3.90;;;13.40;99.90;;;;;;5014417;28;20485;-68
2024/02/19 12:27:30;;;;;;;9.57;4.73;;;13.50;99.90;;;;;;5014511;28;20466;-68
2024/02/19 12:29:57;;;;;;;9.93;4.07;;;13.40;99.90;;;;;;5016387;28;20419;-69
2024/02/19 12:32:23;;;;;;;11.27;4.60;;;13.30;99.90;;;;;;5017237;28;20173;-68
2024/02/19 12:34:49;;;;;;;18.33;5.07;;;13.30;99.90;;;;;;5016773;28;20546;-69
2024/02/19 12:37:15;;;;;;;7.40;3.70;;;13.20;99.90;;;;;;5016823;28;20847;-69
2024/02/19 12:39:41;;;;;;;7.93;3.67;;;13.20;99.90;;;;;;5014787;28;20181;-68
2024/02/19 12:42:08;;;;;;;8.20;3.70;;;13.30;99.90;;;;;;5013509;28;20956;-68